sensor_id;sensor_type;location;lat;lon;timestamp;temperature;humidity
7658;DHT22;8462;53.156;8.220;2023-11-19T00:01:45;10.80;99.90
7658;DHT22;8462;53.156;8.220;2023-11-19T00:04:13;10.90;99.90
7658;DHT22;8462;53.156;8.220;2023-11-19T00:06:41;10.90;99.90
7658;DHT22;8462;53.156;8.220;2023-11-19T00:09:09;10.90;99.90
7658;DHT22;8462;53.156;8.220;2023-11-19T00:11:37;11.00;99.90
7658;DHT22;8462;53.156;8.220;2023-11-19T00:14:04;11.10;99.90
7658;DHT22;8462;53.156;8.220;2023-11-19T00:16:34;11.10;99.90
7658;DHT22;8462;53.156;8.220;2023-11-19T00:19:01;11.10;99.90
7658;DHT22;8462;53.156;8.220;2023-11-19T00:21:29;11.20;99.90
7658;DHT22;8462;53.156;8.220;2023-11-19T00:23:57;11.20;99.90
7658;DHT22;8462;53.156;8.220;2023-11-19T00:26:24;11.30;99.90
7658;DHT22;8462;53.156;8.220;2023-11-19T00:28:52;11.30;99.90
7658;DHT22;8462;53.156;8.220;2023-11-19T00:31:19;11.30;99.90
7658;DHT22;8462;53.156;8.220;2023-11-19T00:33:46;11.40;99.90
7658;DHT22;8462;53.156;8.220;2023-11-19T00:36:13;11.50;99.90
7658;DHT22;8462;53.156;8.220;2023-11-19T00:38:40;11.50;99.90
7658;DHT22;8462;53.156;8.220;2023-11-19T00:41:09;11.50;99.90
7658;DHT22;8462;53.156;8.220;2023-11-19T00:43:36;11.60;99.90
7658;DHT22;8462;53.156;8.220;2023-11-19T00:46:03;11.70;99.90
7658;DHT22;8462;53.156;8.220;2023-11-19T00:48:33;11.70;99.90
7658;DHT22;8462;53.156;8.220;2023-11-19T00:51:00;11.80;99.90
7658;DHT22;8462;53.156;8.220;2023-11-19T00:53:29;11.80;99.90
7658;DHT22;8462;53.156;8.220;2023-11-19T00:55:55;11.90;99.90
7658;DHT22;8462;53.156;8.220;2023-11-19T00:58:24;11.90;99.90
7658;DHT22;8462;53.156;8.220;2023-11-19T01:00:51;11.90;99.90
7658;DHT22;8462;53.156;8.220;2023-11-19T01:03:18;12.00;99.90
7658;DHT22;8462;53.156;8.220;2023-11-19T01:05:45;11.90;99.90
7658;DHT22;8462;53.156;8.220;2023-11-19T01:08:13;12.00;99.90
7658;DHT22;8462;53.156;8.220;2023-11-19T01:10:40;12.00;99.90
7658;DHT22;8462;53.156;8.220;2023-11-19T01:13:07;12.00;99.90
7658;DHT22;8462;53.156;8.220;2023-11-19T01:15:36;12.00;99.90
7658;DHT22;8462;53.156;8.220;2023-11-19T01:18:03;12.10;99.90
7658;DHT22;8462;53.156;8.220;2023-11-19T01:20:31;12.20;99.90
7658;DHT22;8462;53.156;8.220;2023-11-19T01:22:59;12.20;99.90
7658;DHT22;8462;53.156;8.220;2023-11-19T01:25:27;12.20;99.90
7658;DHT22;8462;53.156;8.220;2023-11-19T01:27:54;12.30;99.90
7658;DHT22;8462;53.156;8.220;2023-11-19T01:30:25;12.30;99.90
7658;DHT22;8462;53.156;8.220;2023-11-19T01:32:53;12.40;99.90
7658;DHT22;8462;53.156;8.220;2023-11-19T01:35:21;12.40;99.90
7658;DHT22;8462;53.156;8.220;2023-11-19T01:37:49;12.40;99.90
7658;DHT22;8462;53.156;8.220;2023-11-19T01:40:20;12.50;99.90
7658;DHT22;8462;53.156;8.220;2023-11-19T01:42:47;12.50;99.90
7658;DHT22;8462;53.156;8.220;2023-11-19T01:45:27;12.60;99.90
7658;DHT22;8462;53.156;8.220;2023-11-19T01:47:57;12.60;99.90
7658;DHT22;8462;53.156;8.220;2023-11-19T01:50:25;12.60;99.90
7658;DHT22;8462;53.156;8.220;2023-11-19T01:52:53;12.60;99.90
7658;DHT22;8462;53.156;8.220;2023-11-19T01:55:24;12.70;99.90
7658;DHT22;8462;53.156;8.220;2023-11-19T01:57:53;12.70;99.90
7658;DHT22;8462;53.156;8.220;2023-11-19T02:00:22;12.70;99.90
7658;DHT22;8462;53.156;8.220;2023-11-19T02:02:49;12.70;99.90
7658;DHT22;8462;53.156;8.220;2023-11-19T02:05:19;12.70;99.90
7658;DHT22;8462;53.156;8.220;2023-11-19T02:07:49;12.80;99.90
7658;DHT22;8462;53.156;8.220;2023-11-19T02:10:17;12.80;99.90
7658;DHT22;8462;53.156;8.220;2023-11-19T02:12:45;12.80;99.90
7658;DHT22;8462;53.156;8.220;2023-11-19T02:15:12;12.90;99.90
7658;DHT22;8462;53.156;8.220;2023-11-19T02:17:39;12.90;99.90
7658;DHT22;8462;53.156;8.220;2023-11-19T02:20:07;13.00;99.90
7658;DHT22;8462;53.156;8.220;2023-11-19T02:22:36;13.00;99.90
7658;DHT22;8462;53.156;8.220;2023-11-19T02:25:06;13.00;99.90
7658;DHT22;8462;53.156;8.220;2023-11-19T02:27:49;13.10;99.90
7658;DHT22;8462;53.156;8.220;2023-11-19T02:30:20;13.10;99.90
7658;DHT22;8462;53.156;8.220;2023-11-19T02:32:52;13.20;99.90
7658;DHT22;8462;53.156;8.220;2023-11-19T02:35:19;13.20;99.90
7658;DHT22;8462;53.156;8.220;2023-11-19T02:37:47;13.20;99.90
7658;DHT22;8462;53.156;8.220;2023-11-19T02:40:14;13.30;99.90
7658;DHT22;8462;53.156;8.220;2023-11-19T02:42:41;13.30;99.90
7658;DHT22;8462;53.156;8.220;2023-11-19T02:45:10;13.30;99.90
7658;DHT22;8462;53.156;8.220;2023-11-19T02:47:40;13.30;99.90
7658;DHT22;8462;53.156;8.220;2023-11-19T02:50:10;13.40;99.90
7658;DHT22;8462;53.156;8.220;2023-11-19T02:52:40;13.40;99.90
7658;DHT22;8462;53.156;8.220;2023-11-19T02:55:07;13.40;99.90
7658;DHT22;8462;53.156;8.220;2023-11-19T02:57:38;13.40;99.90
7658;DHT22;8462;53.156;8.220;2023-11-19T03:02:41;13.50;99.90
7658;DHT22;8462;53.156;8.220;2023-11-19T03:05:12;13.50;99.90
7658;DHT22;8462;53.156;8.220;2023-11-19T03:07:41;13.50;99.90
7658;DHT22;8462;53.156;8.220;2023-11-19T03:10:10;13.50;99.90
7658;DHT22;8462;53.156;8.220;2023-11-19T03:12:39;13.50;99.90
7658;DHT22;8462;53.156;8.220;2023-11-19T03:15:07;13.50;99.90
7658;DHT22;8462;53.156;8.220;2023-11-19T03:17:38;13.60;99.90
7658;DHT22;8462;53.156;8.220;2023-11-19T03:20:07;13.60;99.90
7658;DHT22;8462;53.156;8.220;2023-11-19T03:22:36;13.70;99.90
7658;DHT22;8462;53.156;8.220;2023-11-19T03:25:04;13.70;99.90
7658;DHT22;8462;53.156;8.220;2023-11-19T03:27:34;13.70;99.90
7658;DHT22;8462;53.156;8.220;2023-11-19T03:30:01;13.70;99.90
7658;DHT22;8462;53.156;8.220;2023-11-19T03:32:30;13.70;99.90
7658;DHT22;8462;53.156;8.220;2023-11-19T03:35:02;13.80;99.90
7658;DHT22;8462;53.156;8.220;2023-11-19T03:37:30;13.80;99.90
7658;DHT22;8462;53.156;8.220;2023-11-19T03:39:58;13.70;99.90
7658;DHT22;8462;53.156;8.220;2023-11-19T03:42:25;13.80;99.90
7658;DHT22;8462;53.156;8.220;2023-11-19T03:44:52;13.80;99.90
7658;DHT22;8462;53.156;8.220;2023-11-19T03:47:21;13.80;99.90
7658;DHT22;8462;53.156;8.220;2023-11-19T03:49:48;13.80;99.90
7658;DHT22;8462;53.156;8.220;2023-11-19T03:52:17;13.80;99.90
7658;DHT22;8462;53.156;8.220;2023-11-19T03:54:44;13.80;99.90
7658;DHT22;8462;53.156;8.220;2023-11-19T03:57:12;13.80;99.90
7658;DHT22;8462;53.156;8.220;2023-11-19T03:59:39;13.90;99.90
7658;DHT22;8462;53.156;8.220;2023-11-19T04:02:06;13.90;99.90
7658;DHT22;8462;53.156;8.220;2023-11-19T04:04:33;13.90;99.90
7658;DHT22;8462;53.156;8.220;2023-11-19T04:07:00;13.90;99.90
7658;DHT22;8462;53.156;8.220;2023-11-19T04:09:30;13.90;99.90
7658;DHT22;8462;53.156;8.220;2023-11-19T04:11:58;14.00;99.90
7658;DHT22;8462;53.156;8.220;2023-11-19T04:14:26;14.00;99.90
7658;DHT22;8462;53.156;8.220;2023-11-19T04:16:53;14.10;99.90
7658;DHT22;8462;53.156;8.220;2023-11-19T04:19:22;14.10;99.90
7658;DHT22;8462;53.156;8.220;2023-11-19T04:21:50;14.10;99.90
7658;DHT22;8462;53.156;8.220;2023-11-19T04:24:17;14.10;99.90
7658;DHT22;8462;53.156;8.220;2023-11-19T04:26:46;14.20;99.90
7658;DHT22;8462;53.156;8.220;2023-11-19T04:29:14;14.20;99.90
7658;DHT22;8462;53.156;8.220;2023-11-19T04:31:42;14.20;99.90
7658;DHT22;8462;53.156;8.220;2023-11-19T04:34:09;14.20;99.90
7658;DHT22;8462;53.156;8.220;2023-11-19T04:36:37;14.20;99.90
7658;DHT22;8462;53.156;8.220;2023-11-19T04:39:04;14.20;99.90
7658;DHT22;8462;53.156;8.220;2023-11-19T04:41:35;14.20;99.90
7658;DHT22;8462;53.156;8.220;2023-11-19T04:44:03;14.20;99.90
7658;DHT22;8462;53.156;8.220;2023-11-19T04:46:30;14.20;99.90
7658;DHT22;8462;53.156;8.220;2023-11-19T04:48:57;14.20;99.90
7658;DHT22;8462;53.156;8.220;2023-11-19T04:51:24;14.20;99.90
7658;DHT22;8462;53.156;8.220;2023-11-19T04:53:50;14.20;99.90
7658;DHT22;8462;53.156;8.220;2023-11-19T04:56:18;14.10;99.90
7658;DHT22;8462;53.156;8.220;2023-11-19T04:58:48;14.10;99.90
7658;DHT22;8462;53.156;8.220;2023-11-19T05:01:16;14.10;99.90
7658;DHT22;8462;53.156;8.220;2023-11-19T05:03:43;14.20;99.90
7658;DHT22;8462;53.156;8.220;2023-11-19T05:06:10;14.20;99.90
7658;DHT22;8462;53.156;8.220;2023-11-19T05:08:37;14.20;99.90
7658;DHT22;8462;53.156;8.220;2023-11-19T05:11:04;14.20;99.90
7658;DHT22;8462;53.156;8.220;2023-11-19T05:13:32;14.20;99.90
7658;DHT22;8462;53.156;8.220;2023-11-19T05:15:59;14.30;99.90
7658;DHT22;8462;53.156;8.220;2023-11-19T05:18:27;14.30;99.90
7658;DHT22;8462;53.156;8.220;2023-11-19T05:20:54;14.30;99.90
7658;DHT22;8462;53.156;8.220;2023-11-19T05:23:21;14.30;99.90
7658;DHT22;8462;53.156;8.220;2023-11-19T05:25:48;14.30;99.90
7658;DHT22;8462;53.156;8.220;2023-11-19T05:28:15;14.40;99.90
7658;DHT22;8462;53.156;8.220;2023-11-19T05:30:42;14.30;99.90
7658;DHT22;8462;53.156;8.220;2023-11-19T05:33:09;14.30;99.90
7658;DHT22;8462;53.156;8.220;2023-11-19T05:35:37;14.30;99.90
7658;DHT22;8462;53.156;8.220;2023-11-19T05:38:04;14.30;99.90
7658;DHT22;8462;53.156;8.220;2023-11-19T05:40:31;14.30;99.90
7658;DHT22;8462;53.156;8.220;2023-11-19T05:42:58;14.30;99.90
7658;DHT22;8462;53.156;8.220;2023-11-19T05:45:25;14.30;99.90
7658;DHT22;8462;53.156;8.220;2023-11-19T05:47:53;14.30;99.90
7658;DHT22;8462;53.156;8.220;2023-11-19T05:50:20;14.40;99.90
7658;DHT22;8462;53.156;8.220;2023-11-19T05:52:48;14.40;99.90
7658;DHT22;8462;53.156;8.220;2023-11-19T05:55:16;14.40;99.90
7658;DHT22;8462;53.156;8.220;2023-11-19T05:57:43;14.40;99.90
7658;DHT22;8462;53.156;8.220;2023-11-19T06:00:11;14.40;99.90
7658;DHT22;8462;53.156;8.220;2023-11-19T06:02:41;14.40;99.90
7658;DHT22;8462;53.156;8.220;2023-11-19T06:05:08;14.40;99.90
7658;DHT22;8462;53.156;8.220;2023-11-19T06:07:35;14.40;99.90
7658;DHT22;8462;53.156;8.220;2023-11-19T06:10:06;14.30;99.90
7658;DHT22;8462;53.156;8.220;2023-11-19T06:12:35;14.40;99.90
7658;DHT22;8462;53.156;8.220;2023-11-19T06:15:05;14.40;99.90
7658;DHT22;8462;53.156;8.220;2023-11-19T06:17:32;14.30;99.90
7658;DHT22;8462;53.156;8.220;2023-11-19T06:19:59;14.40;99.90
7658;DHT22;8462;53.156;8.220;2023-11-19T06:22:25;14.40;99.90
7658;DHT22;8462;53.156;8.220;2023-11-19T06:24:52;14.40;99.90
7658;DHT22;8462;53.156;8.220;2023-11-19T06:27:22;14.30;99.90
7658;DHT22;8462;53.156;8.220;2023-11-19T06:29:49;14.30;99.90
7658;DHT22;8462;53.156;8.220;2023-11-19T06:32:17;14.30;99.90
7658;DHT22;8462;53.156;8.220;2023-11-19T06:34:44;14.30;99.90
7658;DHT22;8462;53.156;8.220;2023-11-19T06:37:11;14.30;99.90
7658;DHT22;8462;53.156;8.220;2023-11-19T06:39:38;14.40;99.90
7658;DHT22;8462;53.156;8.220;2023-11-19T06:42:06;14.40;99.90
7658;DHT22;8462;53.156;8.220;2023-11-19T06:44:35;14.40;99.90
7658;DHT22;8462;53.156;8.220;2023-11-19T06:47:02;14.40;99.90
7658;DHT22;8462;53.156;8.220;2023-11-19T06:49:29;14.30;99.90
7658;DHT22;8462;53.156;8.220;2023-11-19T06:51:56;14.30;99.90
7658;DHT22;8462;53.156;8.220;2023-11-19T06:54:23;14.30;99.90
7658;DHT22;8462;53.156;8.220;2023-11-19T06:56:50;14.30;99.90
7658;DHT22;8462;53.156;8.220;2023-11-19T06:59:17;14.30;99.90
7658;DHT22;8462;53.156;8.220;2023-11-19T07:01:45;14.20;99.90
7658;DHT22;8462;53.156;8.220;2023-11-19T07:04:12;14.20;99.90
7658;DHT22;8462;53.156;8.220;2023-11-19T07:06:39;14.10;99.90
7658;DHT22;8462;53.156;8.220;2023-11-19T07:09:07;14.00;99.90
7658;DHT22;8462;53.156;8.220;2023-11-19T07:11:36;14.00;99.90
7658;DHT22;8462;53.156;8.220;2023-11-19T07:14:04;14.00;99.90
7658;DHT22;8462;53.156;8.220;2023-11-19T07:16:32;14.10;99.90
7658;DHT22;8462;53.156;8.220;2023-11-19T07:19:01;14.10;99.90
7658;DHT22;8462;53.156;8.220;2023-11-19T07:21:28;14.10;99.90
7658;DHT22;8462;53.156;8.220;2023-11-19T07:23:55;14.10;99.90
7658;DHT22;8462;53.156;8.220;2023-11-19T07:26:23;14.20;99.90
7658;DHT22;8462;53.156;8.220;2023-11-19T07:28:50;14.20;99.90
7658;DHT22;8462;53.156;8.220;2023-11-19T07:31:17;14.20;99.90
7658;DHT22;8462;53.156;8.220;2023-11-19T07:33:45;14.20;99.90
7658;DHT22;8462;53.156;8.220;2023-11-19T07:36:14;14.30;99.90
7658;DHT22;8462;53.156;8.220;2023-11-19T07:38:42;14.30;99.90
7658;DHT22;8462;53.156;8.220;2023-11-19T07:41:10;14.30;99.90
7658;DHT22;8462;53.156;8.220;2023-11-19T07:43:39;14.30;99.90
7658;DHT22;8462;53.156;8.220;2023-11-19T07:46:10;14.30;99.90
7658;DHT22;8462;53.156;8.220;2023-11-19T07:48:38;14.20;99.90
7658;DHT22;8462;53.156;8.220;2023-11-19T07:51:05;14.20;99.90
7658;DHT22;8462;53.156;8.220;2023-11-19T07:53:35;14.20;99.90
7658;DHT22;8462;53.156;8.220;2023-11-19T07:56:04;14.20;99.90
7658;DHT22;8462;53.156;8.220;2023-11-19T07:58:31;14.30;99.90
7658;DHT22;8462;53.156;8.220;2023-11-19T08:00:58;14.30;99.90
7658;DHT22;8462;53.156;8.220;2023-11-19T08:03:25;14.40;99.90
7658;DHT22;8462;53.156;8.220;2023-11-19T08:05:54;14.40;99.90
7658;DHT22;8462;53.156;8.220;2023-11-19T08:08:21;14.40;99.90
7658;DHT22;8462;53.156;8.220;2023-11-19T08:10:49;14.50;99.90
7658;DHT22;8462;53.156;8.220;2023-11-19T08:13:17;14.50;99.90
7658;DHT22;8462;53.156;8.220;2023-11-19T08:15:44;14.50;99.90
7658;DHT22;8462;53.156;8.220;2023-11-19T08:18:14;14.60;99.90
7658;DHT22;8462;53.156;8.220;2023-11-19T08:20:40;14.60;99.90
7658;DHT22;8462;53.156;8.220;2023-11-19T08:23:09;14.60;99.90
7658;DHT22;8462;53.156;8.220;2023-11-19T08:25:39;14.60;99.90
7658;DHT22;8462;53.156;8.220;2023-11-19T08:28:07;14.60;99.90
7658;DHT22;8462;53.156;8.220;2023-11-19T08:30:33;14.60;99.90
7658;DHT22;8462;53.156;8.220;2023-11-19T08:33:00;14.70;99.90
7658;DHT22;8462;53.156;8.220;2023-11-19T08:35:28;14.70;99.90
7658;DHT22;8462;53.156;8.220;2023-11-19T08:37:55;14.70;99.90
7658;DHT22;8462;53.156;8.220;2023-11-19T08:40:23;14.80;99.90
7658;DHT22;8462;53.156;8.220;2023-11-19T08:42:51;14.80;99.90
7658;DHT22;8462;53.156;8.220;2023-11-19T08:45:20;14.80;99.90
7658;DHT22;8462;53.156;8.220;2023-11-19T08:47:47;14.90;99.90
7658;DHT22;8462;53.156;8.220;2023-11-19T08:50:13;14.90;99.90
7658;DHT22;8462;53.156;8.220;2023-11-19T08:52:40;14.90;99.90
7658;DHT22;8462;53.156;8.220;2023-11-19T08:55:07;15.00;99.90
7658;DHT22;8462;53.156;8.220;2023-11-19T08:57:35;15.00;99.90
7658;DHT22;8462;53.156;8.220;2023-11-19T09:00:02;15.10;99.90
7658;DHT22;8462;53.156;8.220;2023-11-19T09:02:34;15.10;99.90
7658;DHT22;8462;53.156;8.220;2023-11-19T09:05:02;15.10;99.90
7658;DHT22;8462;53.156;8.220;2023-11-19T09:07:29;15.10;99.90
7658;DHT22;8462;53.156;8.220;2023-11-19T09:09:56;15.10;99.90
7658;DHT22;8462;53.156;8.220;2023-11-19T09:12:23;15.10;99.90
7658;DHT22;8462;53.156;8.220;2023-11-19T09:14:50;15.10;99.90
7658;DHT22;8462;53.156;8.220;2023-11-19T09:17:17;15.10;99.90
7658;DHT22;8462;53.156;8.220;2023-11-19T09:19:45;15.20;99.90
7658;DHT22;8462;53.156;8.220;2023-11-19T09:22:12;15.20;99.90
7658;DHT22;8462;53.156;8.220;2023-11-19T09:24:39;15.30;99.90
7658;DHT22;8462;53.156;8.220;2023-11-19T09:27:06;15.30;99.90
7658;DHT22;8462;53.156;8.220;2023-11-19T09:29:32;15.30;99.90
7658;DHT22;8462;53.156;8.220;2023-11-19T09:31:59;15.30;99.90
7658;DHT22;8462;53.156;8.220;2023-11-19T09:34:26;15.30;99.90
7658;DHT22;8462;53.156;8.220;2023-11-19T09:36:55;15.30;99.90
7658;DHT22;8462;53.156;8.220;2023-11-19T09:39:22;15.30;99.90
7658;DHT22;8462;53.156;8.220;2023-11-19T09:41:51;15.30;99.90
7658;DHT22;8462;53.156;8.220;2023-11-19T09:44:18;15.20;99.90
7658;DHT22;8462;53.156;8.220;2023-11-19T09:46:45;15.20;99.90
7658;DHT22;8462;53.156;8.220;2023-11-19T09:49:14;15.10;99.90
7658;DHT22;8462;53.156;8.220;2023-11-19T09:51:45;15.10;99.90
7658;DHT22;8462;53.156;8.220;2023-11-19T09:54:13;14.90;99.90
7658;DHT22;8462;53.156;8.220;2023-11-19T09:56:40;14.80;99.90
7658;DHT22;8462;53.156;8.220;2023-11-19T09:59:08;14.80;99.90
7658;DHT22;8462;53.156;8.220;2023-11-19T10:01:37;14.70;99.90
7658;DHT22;8462;53.156;8.220;2023-11-19T10:04:05;14.70;99.90
7658;DHT22;8462;53.156;8.220;2023-11-19T10:06:33;14.70;99.90
7658;DHT22;8462;53.156;8.220;2023-11-19T10:09:01;14.60;99.90
7658;DHT22;8462;53.156;8.220;2023-11-19T10:11:34;14.60;99.90
7658;DHT22;8462;53.156;8.220;2023-11-19T10:14:01;14.60;99.90
7658;DHT22;8462;53.156;8.220;2023-11-19T10:16:29;14.50;99.90
7658;DHT22;8462;53.156;8.220;2023-11-19T10:18:59;14.50;99.90
7658;DHT22;8462;53.156;8.220;2023-11-19T10:21:26;14.40;99.90
7658;DHT22;8462;53.156;8.220;2023-11-19T10:23:55;14.40;99.90
7658;DHT22;8462;53.156;8.220;2023-11-19T10:26:27;14.40;99.90
7658;DHT22;8462;53.156;8.220;2023-11-19T10:28:56;14.40;99.90
7658;DHT22;8462;53.156;8.220;2023-11-19T10:31:24;14.40;99.90
7658;DHT22;8462;53.156;8.220;2023-11-19T10:33:52;14.40;99.90
7658;DHT22;8462;53.156;8.220;2023-11-19T10:36:20;14.40;99.90
7658;DHT22;8462;53.156;8.220;2023-11-19T10:39:02;14.40;99.90
7658;DHT22;8462;53.156;8.220;2023-11-19T10:41:30;14.40;99.90
7658;DHT22;8462;53.156;8.220;2023-11-19T10:43:59;14.40;99.90
7658;DHT22;8462;53.156;8.220;2023-11-19T10:46:37;14.50;99.90
7658;DHT22;8462;53.156;8.220;2023-11-19T10:49:04;14.60;99.90
7658;DHT22;8462;53.156;8.220;2023-11-19T10:51:33;14.60;99.90
7658;DHT22;8462;53.156;8.220;2023-11-19T10:54:02;14.80;99.90
7658;DHT22;8462;53.156;8.220;2023-11-19T10:56:32;14.80;99.90
7658;DHT22;8462;53.156;8.220;2023-11-19T10:59:03;14.90;99.90
7658;DHT22;8462;53.156;8.220;2023-11-19T11:01:37;15.20;99.90
7658;DHT22;8462;53.156;8.220;2023-11-19T11:04:13;15.40;99.90
7658;DHT22;8462;53.156;8.220;2023-11-19T11:06:44;15.40;99.90
7658;DHT22;8462;53.156;8.220;2023-11-19T11:09:13;15.40;99.90
7658;DHT22;8462;53.156;8.220;2023-11-19T11:11:41;15.20;99.90
7658;DHT22;8462;53.156;8.220;2023-11-19T11:14:16;15.20;99.90
7658;DHT22;8462;53.156;8.220;2023-11-19T11:16:46;15.10;99.90
7658;DHT22;8462;53.156;8.220;2023-11-19T11:19:16;15.10;99.90
7658;DHT22;8462;53.156;8.220;2023-11-19T11:21:49;15.20;99.90
7658;DHT22;8462;53.156;8.220;2023-11-19T11:24:39;15.20;99.90
7658;DHT22;8462;53.156;8.220;2023-11-19T11:27:33;15.40;99.90
7658;DHT22;8462;53.156;8.220;2023-11-19T11:30:13;15.50;99.90
7658;DHT22;8462;53.156;8.220;2023-11-19T11:32:58;15.60;99.90
7658;DHT22;8462;53.156;8.220;2023-11-19T11:35:37;15.50;99.90
7658;DHT22;8462;53.156;8.220;2023-11-19T11:38:08;15.40;99.90
7658;DHT22;8462;53.156;8.220;2023-11-19T11:40:35;15.30;99.90
7658;DHT22;8462;53.156;8.220;2023-11-19T11:43:02;15.30;99.90
7658;DHT22;8462;53.156;8.220;2023-11-19T11:45:38;15.20;99.90
7658;DHT22;8462;53.156;8.220;2023-11-19T11:48:10;15.10;99.90
7658;DHT22;8462;53.156;8.220;2023-11-19T11:50:53;15.00;99.90
7658;DHT22;8462;53.156;8.220;2023-11-19T11:53:21;15.00;99.90
7658;DHT22;8462;53.156;8.220;2023-11-19T11:55:55;14.90;99.90
7658;DHT22;8462;53.156;8.220;2023-11-19T11:58:29;14.90;99.90
7658;DHT22;8462;53.156;8.220;2023-11-19T12:01:01;14.90;99.90
7658;DHT22;8462;53.156;8.220;2023-11-19T12:03:29;15.00;99.90
7658;DHT22;8462;53.156;8.220;2023-11-19T12:05:57;15.00;99.90
7658;DHT22;8462;53.156;8.220;2023-11-19T12:08:26;15.00;99.90
7658;DHT22;8462;53.156;8.220;2023-11-19T12:10:55;15.00;99.90
7658;DHT22;8462;53.156;8.220;2023-11-19T12:13:24;15.00;99.90
7658;DHT22;8462;53.156;8.220;2023-11-19T12:16:11;15.00;99.90
7658;DHT22;8462;53.156;8.220;2023-11-19T12:18:39;14.90;99.90
7658;DHT22;8462;53.156;8.220;2023-11-19T12:21:07;14.90;99.90
7658;DHT22;8462;53.156;8.220;2023-11-19T12:23:44;14.80;99.90
7658;DHT22;8462;53.156;8.220;2023-11-19T12:26:30;14.80;99.90
7658;DHT22;8462;53.156;8.220;2023-11-19T12:28:57;14.70;99.90
7658;DHT22;8462;53.156;8.220;2023-11-19T12:31:26;14.70;99.90
7658;DHT22;8462;53.156;8.220;2023-11-19T12:33:53;14.60;99.90
7658;DHT22;8462;53.156;8.220;2023-11-19T12:36:20;14.60;99.90
7658;DHT22;8462;53.156;8.220;2023-11-19T12:38:47;14.50;99.90
7658;DHT22;8462;53.156;8.220;2023-11-19T12:41:15;14.50;99.90
7658;DHT22;8462;53.156;8.220;2023-11-19T12:43:46;14.50;99.90
7658;DHT22;8462;53.156;8.220;2023-11-19T12:46:20;14.40;99.90
7658;DHT22;8462;53.156;8.220;2023-11-19T12:48:48;14.40;99.90
7658;DHT22;8462;53.156;8.220;2023-11-19T12:51:15;14.30;99.90
7658;DHT22;8462;53.156;8.220;2023-11-19T12:53:49;14.30;99.90
7658;DHT22;8462;53.156;8.220;2023-11-19T12:56:20;14.20;99.90
7658;DHT22;8462;53.156;8.220;2023-11-19T12:58:47;14.20;99.90
7658;DHT22;8462;53.156;8.220;2023-11-19T13:01:16;14.20;99.90
7658;DHT22;8462;53.156;8.220;2023-11-19T13:03:44;14.30;99.90
7658;DHT22;8462;53.156;8.220;2023-11-19T13:06:14;14.30;99.90
7658;DHT22;8462;53.156;8.220;2023-11-19T13:08:42;14.30;99.90
7658;DHT22;8462;53.156;8.220;2023-11-19T13:11:10;14.30;99.90
7658;DHT22;8462;53.156;8.220;2023-11-19T13:13:56;14.30;99.90
7658;DHT22;8462;53.156;8.220;2023-11-19T13:16:23;14.30;99.90
7658;DHT22;8462;53.156;8.220;2023-11-19T13:18:51;14.20;99.90
7658;DHT22;8462;53.156;8.220;2023-11-19T13:21:19;14.20;99.90
7658;DHT22;8462;53.156;8.220;2023-11-19T13:23:46;14.10;99.90
7658;DHT22;8462;53.156;8.220;2023-11-19T13:26:13;14.00;99.90
7658;DHT22;8462;53.156;8.220;2023-11-19T13:28:40;14.10;99.90
7658;DHT22;8462;53.156;8.220;2023-11-19T13:31:07;14.00;99.90
7658;DHT22;8462;53.156;8.220;2023-11-19T13:33:34;14.00;99.90
7658;DHT22;8462;53.156;8.220;2023-11-19T13:36:01;14.00;99.90
7658;DHT22;8462;53.156;8.220;2023-11-19T13:38:32;13.90;99.90
7658;DHT22;8462;53.156;8.220;2023-11-19T13:40:59;13.90;99.90
7658;DHT22;8462;53.156;8.220;2023-11-19T13:43:26;14.00;99.90
7658;DHT22;8462;53.156;8.220;2023-11-19T13:45:54;14.10;99.90
7658;DHT22;8462;53.156;8.220;2023-11-19T13:48:21;14.10;99.90
7658;DHT22;8462;53.156;8.220;2023-11-19T13:50:48;14.20;99.90
7658;DHT22;8462;53.156;8.220;2023-11-19T13:53:15;14.20;99.90
7658;DHT22;8462;53.156;8.220;2023-11-19T13:55:43;14.30;99.90
7658;DHT22;8462;53.156;8.220;2023-11-19T13:58:10;14.30;99.90
7658;DHT22;8462;53.156;8.220;2023-11-19T14:00:38;14.30;99.90
7658;DHT22;8462;53.156;8.220;2023-11-19T14:03:05;14.30;99.90
7658;DHT22;8462;53.156;8.220;2023-11-19T14:05:32;14.30;99.90
7658;DHT22;8462;53.156;8.220;2023-11-19T14:07:59;14.40;99.90
7658;DHT22;8462;53.156;8.220;2023-11-19T14:10:27;14.50;99.90
7658;DHT22;8462;53.156;8.220;2023-11-19T14:12:55;14.50;99.90
7658;DHT22;8462;53.156;8.220;2023-11-19T14:15:22;14.60;99.90
7658;DHT22;8462;53.156;8.220;2023-11-19T14:17:49;14.60;99.90
7658;DHT22;8462;53.156;8.220;2023-11-19T14:20:16;14.60;99.90
7658;DHT22;8462;53.156;8.220;2023-11-19T14:22:44;14.70;99.90
7658;DHT22;8462;53.156;8.220;2023-11-19T14:25:13;14.70;99.90
7658;DHT22;8462;53.156;8.220;2023-11-19T14:27:41;14.60;99.90
7658;DHT22;8462;53.156;8.220;2023-11-19T14:30:11;14.60;99.90
7658;DHT22;8462;53.156;8.220;2023-11-19T14:32:40;14.70;99.90
7658;DHT22;8462;53.156;8.220;2023-11-19T14:35:08;14.70;99.90
7658;DHT22;8462;53.156;8.220;2023-11-19T14:37:35;14.60;99.90
7658;DHT22;8462;53.156;8.220;2023-11-19T14:40:02;14.60;99.90
7658;DHT22;8462;53.156;8.220;2023-11-19T14:42:31;14.50;99.90
7658;DHT22;8462;53.156;8.220;2023-11-19T14:44:58;14.50;99.90
7658;DHT22;8462;53.156;8.220;2023-11-19T14:47:28;14.60;99.90
7658;DHT22;8462;53.156;8.220;2023-11-19T14:49:55;14.60;99.90
7658;DHT22;8462;53.156;8.220;2023-11-19T14:52:21;14.60;99.90
7658;DHT22;8462;53.156;8.220;2023-11-19T14:54:48;14.70;99.90
7658;DHT22;8462;53.156;8.220;2023-11-19T14:57:16;14.70;99.90
7658;DHT22;8462;53.156;8.220;2023-11-19T14:59:43;14.70;99.90
7658;DHT22;8462;53.156;8.220;2023-11-19T15:02:11;14.60;99.90
7658;DHT22;8462;53.156;8.220;2023-11-19T15:04:40;14.60;99.90
7658;DHT22;8462;53.156;8.220;2023-11-19T15:07:07;14.50;99.90
7658;DHT22;8462;53.156;8.220;2023-11-19T15:09:34;14.30;99.90
7658;DHT22;8462;53.156;8.220;2023-11-19T15:12:02;14.20;99.90
7658;DHT22;8462;53.156;8.220;2023-11-19T15:14:30;14.10;99.90
7658;DHT22;8462;53.156;8.220;2023-11-19T15:16:57;14.00;99.90
7658;DHT22;8462;53.156;8.220;2023-11-19T15:19:24;14.00;99.90
7658;DHT22;8462;53.156;8.220;2023-11-19T15:21:52;14.00;99.90
7658;DHT22;8462;53.156;8.220;2023-11-19T15:24:20;13.90;99.90
7658;DHT22;8462;53.156;8.220;2023-11-19T15:26:47;13.90;99.90
7658;DHT22;8462;53.156;8.220;2023-11-19T15:29:14;13.80;99.90
7658;DHT22;8462;53.156;8.220;2023-11-19T15:31:41;13.80;99.90
7658;DHT22;8462;53.156;8.220;2023-11-19T15:34:08;13.80;99.90
7658;DHT22;8462;53.156;8.220;2023-11-19T15:36:38;13.80;99.90
7658;DHT22;8462;53.156;8.220;2023-11-19T15:39:06;13.70;99.90
7658;DHT22;8462;53.156;8.220;2023-11-19T15:41:33;13.70;99.90
7658;DHT22;8462;53.156;8.220;2023-11-19T15:44:01;13.80;99.90
7658;DHT22;8462;53.156;8.220;2023-11-19T15:46:29;13.80;99.90
7658;DHT22;8462;53.156;8.220;2023-11-19T15:48:56;13.80;99.90
7658;DHT22;8462;53.156;8.220;2023-11-19T15:51:23;13.70;99.90
7658;DHT22;8462;53.156;8.220;2023-11-19T15:53:50;13.70;99.90
7658;DHT22;8462;53.156;8.220;2023-11-19T15:56:20;13.70;99.90
7658;DHT22;8462;53.156;8.220;2023-11-19T15:58:47;13.70;99.90
7658;DHT22;8462;53.156;8.220;2023-11-19T16:01:14;13.70;99.90
7658;DHT22;8462;53.156;8.220;2023-11-19T16:03:42;13.70;99.90
7658;DHT22;8462;53.156;8.220;2023-11-19T16:06:09;13.70;99.90
7658;DHT22;8462;53.156;8.220;2023-11-19T16:08:37;13.80;99.90
7658;DHT22;8462;53.156;8.220;2023-11-19T16:11:05;13.80;99.90
7658;DHT22;8462;53.156;8.220;2023-11-19T16:13:35;13.80;99.90